Date,TemperatureHighF,TemperatureAvgF,TemperatureLowF,DewpointHighF,DewpointAvgF,DewpointLowF,HumidityHigh,HumidityAvg,HumidityLow,PressureMaxIn,PressureMinIn,WindSpeedMaxMPH,WindSpeedAvgMPH,GustSpeedMaxMPH,PrecipitationSumIn
2013-1-1,22.8,11.2,-1.1,8.5,0.4,-12.2,70,61,48,30.15,30.01,5,1,6,0.04
2013-1-2,14.9,2.5,-5.3,-1.8,-10.2,-16.4,60,55,45,30.18,30.13,7,2,8,0.00
2013-1-3,15.4,6.1,-6.5,-1.1,-8.0,-17.6,59,52,45,30.15,30.10,9,6,10,0.00
2013-1-4,15.4,15.4,15.4,-1.1,-1.1,-1.1,47,47,47,30.10,30.10,9,9,9,0.00
2013-1-5,15.4,14.1,6.6,-1.1,-1.8,-6.2,56,48,47,30.10,29.98,9,8,9,0.00
2013-1-6,6.6,5.4,5.0,-5.3,-6.4,-6.8,57,57,55,29.98,29.92,8,3,8,0.00
2013-1-9,36.5,33.7,32.0,30.6,25.2,22.1,79,71,63,30.07,29.89,4,2,4,0.09
2013-1-10,39.7,27.5,18.9,30.7,21.2,11.6,84,77,63,29.89,29.73,22,2,24,0.13
2013-1-11,19.0,14.4,7.2,11.7,2.8,-6.4,74,60,43,30.12,29.77,0,0,0,0.00
2013-1-12,11.3,-1.2,-10.1,-2.8,-12.7,-22.4,63,57,46,30.23,30.12,4,0,4,0.00
2013-1-13,9.3,-2.2,-13.5,-9.2,-16.7,-26.6,58,49,41,30.34,30.22,7,2,7,0.00
2013-1-14,6.6,-1.3,-11.0,-7.1,-14.1,-24.3,61,53,46,30.44,30.34,9,3,10,0.00
2013-1-15,12.7,7.2,1.4,-0.2,-4.2,-9.3,62,59,51,30.66,30.44,6,3,9,0.00
2013-1-16,19.2,10.7,2.5,4.1,-0.4,-6.5,65,60,50,30.71,30.65,9,4,9,0.00
2013-1-17,19.4,6.9,-1.7,4.7,-4.8,-12.7,65,58,45,30.69,30.56,8,3,9,0.00
2013-1-18,18.0,6.2,-5.8,0.5,-6.9,-17.1,62,54,45,30.58,30.47,8,3,8,0.00
2013-1-19,19.8,4.0,-4.9,2.9,-8.8,-16.1,62,54,43,30.60,30.51,9,3,9,0.00
2013-1-20,22.6,7.8,-0.9,4.9,-4.9,-12.2,64,55,43,30.56,30.50,5,3,8,0.00
2013-1-21,21.4,8.0,-2.2,4.5,-4.9,-13.5,65,55,43,30.54,30.43,9,3,11,0.00
2013-1-22,21.7,7.8,-4.4,5.1,-5.0,-15.6,64,55,44,30.47,30.38,13,5,13,0.00
2013-1-23,29.8,15.8,6.6,13.7,3.0,-4.7,65,56,44,30.39,30.27,10,4,11,0.00
2013-1-24,42.1,32.8,17.2,29.6,23.9,6.8,78,70,58,30.38,30.25,10,3,11,0.00
2013-1-25,41.0,34.6,32.0,32.0,28.0,26.1,82,77,68,30.38,30.18,5,2,7,0.01
2013-1-26,48.0,37.6,33.3,36.1,30.9,28.0,85,77,62,30.18,29.95,10,1,15,0.02
2013-1-27,34.9,29.1,24.4,30.3,24.2,17.4,86,82,74,30.02,29.93,15,1,15,0.11
2013-1-28,28.6,23.6,21.0,18.3,16.2,12.2,77,73,57,30.08,29.99,15,3,17,0.00
2013-1-29,33.3,24.0,18.9,19.0,15.6,11.1,77,70,53,30.22,29.94,16,4,16,0.00
2013-1-30,37.4,31.2,20.3,30.5,24.2,13.5,79,75,67,30.27,30.17,21,11,23,0.00
2013-1-31,39.0,33.3,29.1,31.1,26.5,23.8,81,76,71,30.39,30.28,16,9,18,0.00
2013-2-1,36.1,33.9,31.6,28.0,27.1,25.3,83,76,71,30.49,30.29,18,9,19,0.00
2013-2-2,38.8,31.6,26.1,28.5,24.3,18.6,85,75,62,30.57,30.45,10,3,11,0.00
2013-2-3,29.5,25.4,21.0,22.2,18.7,15.8,80,75,68,30.46,30.28,7,4,8,0.00
2013-2-4,41.7,33.9,27.5,28.0,23.5,20.3,82,66,55,30.30,30.21,9,2,11,0.00
2013-2-5,42.4,33.1,26.4,28.3,24.0,18.9,77,69,56,30.25,30.03,10,3,10,0.00
2013-2-6,37.9,27.1,21.9,27.2,20.6,15.3,85,76,57,30.28,30.06,14,5,17,0.00
2013-2-7,45.3,26.3,19.2,21.8,15.4,11.4,76,64,32,30.29,30.02,12,3,12,0.00
2013-2-8,35.6,30.0,26.1,26.7,19.1,12.2,81,64,50,30.02,29.86,14,5,14,0.00
2013-2-9,35.4,28.5,23.2,22.6,19.1,15.9,76,68,50,29.97,29.84,16,6,16,0.04
2013-2-10,33.3,26.0,11.5,17.0,8.2,-2.0,76,47,35,30.21,30.02,20,8,24,0.00
2013-2-11,30.6,19.2,2.3,13.1,4.5,-9.8,61,52,36,30.31,30.20,8,3,8,0.00
2013-2-12,33.4,24.6,17.1,21.5,13.4,6.1,70,62,48,30.39,30.31,11,3,12,0.00
2013-2-13,35.8,33.0,28.4,24.5,22.3,18.7,70,64,60,30.37,30.25,17,8,18,0.00
2013-2-14,37.6,32.5,21.9,26.5,22.3,15.2,77,66,55,30.46,30.28,15,7,17,0.00
2013-2-15,40.6,32.3,20.8,28.3,21.9,13.5,75,65,58,30.56,30.46,12,5,14,0.00
2013-2-16,45.9,34.6,24.4,27.0,21.4,14.7,69,58,45,30.50,30.07,8,3,11,0.00
2013-2-17,40.8,34.7,25.5,25.4,17.6,10.3,74,51,29,30.09,29.99,19,7,19,0.00
2013-2-18,37.9,28.4,19.0,19.0,14.3,9.1,72,56,39,30.22,30.04,14,3,14,0.00
2013-2-19,35.4,26.6,23.4,22.9,12.2,8.3,60,54,51,30.04,29.83,4,2,4,0.00
2013-2-20,31.3,27.7,24.3,25.1,19.6,16.4,78,71,63,29.98,29.81,16,6,17,0.00
2013-2-21,32.7,25.8,21.4,18.4,15.7,11.4,77,66,53,30.12,29.98,12,6,13,0.06
2013-2-22,34.3,28.0,19.6,22.0,19.1,13.6,78,69,57,30.21,30.04,16,8,19,0.01
2013-2-23,30.9,27.5,19.4,23.7,19.5,8.9,81,71,57,30.12,29.83,29,8,29,0.02
2013-2-24,33.6,20.0,6.1,17.9,7.0,-4.4,66,57,45,30.33,30.12,14,4,14,0.00
2013-2-25,33.6,24.2,9.3,19.6,11.4,-0.6,78,59,43,30.31,30.11,11,4,14,0.00
2013-2-26,35.2,23.4,16.0,19.5,13.7,7.3,78,66,45,30.40,30.15,15,3,15,0.02
2013-2-27,38.1,21.4,8.8,18.2,7.9,-1.3,68,57,39,30.45,30.39,8,2,8,0.04
2013-2-28,39.0,28.8,14.0,23.3,15.1,3.7,75,57,37,30.55,30.45,7,2,8,0.00
2013-3-1,40.8,32.6,28.8,32.3,25.8,23.3,81,76,67,30.60,30.53,8,3,8,0.00
2013-3-2,32.2,32.1,32.0,26.1,26.0,25.9,78,78,78,30.57,30.56,3,3,4,0.00
2013-3-3,43.9,35.0,29.3,33.6,24.6,17.8,79,66,50,30.16,29.95,27,9,27,0.01
2013-3-4,36.3,29.3,23.9,18.3,8.1,3.3,62,41,25,30.35,30.11,11,4,12,0.00
2013-3-5,41.4,28.2,21.2,20.5,10.5,2.9,61,47,37,30.35,30.07,11,4,14,0.00
2013-3-6,53.6,35.6,27.0,32.9,24.3,14.4,81,64,41,30.08,29.87,17,6,21,0.20
2013-3-7,41.4,34.6,27.3,25.4,21.4,16.2,69,59,44,30.17,30.06,11,4,15,0.00
2013-3-8,42.3,34.1,27.3,33.2,26.1,20.2,79,72,63,30.07,29.97,8,3,8,0.06
2013-3-9,45.0,33.3,22.5,22.8,17.3,10.7,76,54,25,30.37,30.01,15,3,18,0.00
2013-3-10,46.8,35.3,25.3,28.3,20.8,15.1,68,56,37,30.45,30.30,18,7,18,0.00
2013-3-11,52.3,41.9,36.0,34.4,26.0,16.6,72,53,42,30.31,30.22,18,8,19,0.01
2013-3-12,54.3,39.0,29.5,34.9,28.2,22.6,76,65,45,30.39,30.27,18,7,18,0.00
2013-3-13,42.8,32.5,29.5,30.7,25.5,22.8,79,75,62,30.41,30.33,7,1,7,0.00
2013-3-14,60.8,50.9,31.3,38.6,34.1,25.5,81,54,37,30.39,30.23,8,3,9,0.00
2013-3-15,59.0,48.0,36.1,36.1,31.9,27.5,73,55,33,30.24,30.14,21,7,24,0.00
2013-3-16,55.6,43.0,33.3,34.8,28.3,18.9,84,57,25,30.15,29.94,21,8,21,0.02
2013-3-17,43.5,36.9,29.5,36.4,15.1,1.8,86,45,22,30.11,29.87,29,14,33,0.04
2013-3-18,45.0,33.8,23.4,18.3,12.8,8.9,60,43,26,30.19,30.05,28,12,32,0.00
2013-3-19,51.4,38.6,22.6,19.9,11.3,4.3,63,35,20,30.35,30.19,11,4,16,0.00
2013-3-20,47.3,40.9,34.3,41.1,27.5,5.9,88,64,23,30.22,29.85,20,5,20,0.33
2013-3-21,41.4,36.1,28.8,36.8,20.6,11.3,86,55,36,30.09,29.86,31,17,34,0.01
2013-3-22,34.9,27.0,22.8,21.6,17.0,13.4,79,66,46,30.15,30.02,14,6,17,0.02
2013-3-23,35.1,24.9,14.5,19.5,14.3,6.9,76,64,37,30.30,30.15,17,4,19,0.01
2013-3-24,37.4,27.0,18.0,20.5,10.3,-0.4,76,53,21,30.34,30.27,10,3,11,0.00
2013-3-25,46.0,32.0,17.2,21.0,8.9,1.9,53,39,22,30.30,30.16,10,3,11,0.00
2013-3-26,48.7,35.0,30.2,34.2,24.4,16.6,81,66,44,30.16,30.08,11,3,11,0.05
2013-3-27,57.2,43.5,30.9,36.7,31.1,26.1,84,64,36,30.18,30.11,13,2,13,0.00
2013-3-28,64.4,48.6,32.2,37.6,31.5,25.3,77,55,26,30.21,30.14,10,4,11,0.00
2013-3-29,64.4,51.0,39.7,40.2,35.1,28.7,80,57,27,30.29,30.20,21,8,24,0.00
2013-3-30,60.8,45.6,32.2,37.9,32.9,26.7,83,64,31,30.35,30.27,8,3,11,0.00
2013-3-31,68.5,50.4,29.5,34.7,26.7,17.1,81,45,15,30.27,30.08,9,3,9,0.00
2013-4-1,64.4,49.9,33.1,42.4,34.1,24.9,81,57,33,30.12,30.04,13,6,16,0.00
2013-4-2,65.1,50.4,38.7,42.4,37.7,28.0,91,67,26,30.21,30.11,11,3,11,0.00
2013-4-3,67.6,56.5,41.0,38.9,33.6,26.3,68,44,22,30.27,30.18,15,6,18,0.00
2013-4-4,70.9,59.4,38.8,41.5,36.6,30.8,85,46,24,30.22,30.03,16,5,19,0.00
2013-4-5,58.6,51.4,43.3,44.3,35.2,25.2,89,56,28,30.13,30.02,27,13,31,0.06
2013-4-6,55.9,44.6,36.3,38.5,33.7,28.2,81,66,45,30.12,30.07,22,7,26,0.00
2013-4-7,53.1,43.7,37.8,44.5,36.4,29.5,88,76,41,30.07,29.83,34,11,34,0.04
2013-4-8,41.9,37.9,30.7,35.5,28.0,12.8,91,69,43,29.95,29.75,27,10,28,0.05
2013-4-9,49.1,37.0,25.7,17.5,13.9,5.1,58,39,21,30.25,29.95,20,9,25,0.00
2013-4-10,55.4,36.3,21.7,38.8,20.7,12.9,75,55,27,30.28,30.01,17,5,18,0.00
2013-4-11,57.0,47.1,38.8,38.2,30.5,18.4,83,55,34,30.15,30.01,22,10,24,0.00
2013-4-12,56.1,44.8,28.2,28.1,21.1,14.6,73,42,20,30.19,29.93,18,5,19,0.00
2013-4-13,55.6,45.9,32.4,38.8,19.0,1.3,73,37,19,29.93,29.70,40,14,41,0.11
2013-4-14,47.7,38.4,21.6,19.4,9.6,0.8,65,32,20,30.01,29.88,21,8,21,0.00
2013-4-15,44.4,36.3,29.1,28.5,22.4,9.2,83,58,34,29.91,29.86,12,4,12,0.00
2013-4-16,45.7,36.5,25.2,17.7,9.6,2.4,71,34,22,30.16,29.93,24,11,24,0.00
2013-4-17,45.3,31.5,23.2,8.0,5.4,-0.3,47,34,21,30.25,30.16,17,10,18,0.00
2013-4-18,51.3,39.7,15.3,22.2,13.9,-3.6,54,36,23,30.39,30.29,18,7,19,0.00
2013-4-19,49.6,41.3,35.2,40.9,30.2,21.7,88,66,48,30.30,30.08,21,10,23,0.01
2013-4-20,54.7,45.7,39.0,41.2,36.3,29.9,96,72,41,30.19,30.09,24,11,27,0.06
2013-4-21,60.4,50.1,36.1,33.2,27.2,19.0,74,44,21,30.22,30.04,30,14,31,0.00
2013-4-22,47.5,38.2,30.4,31.3,17.9,2.4,90,49,23,30.35,30.07,16,7,19,0.04
2013-4-23,50.0,36.5,19.0,16.8,10.6,5.6,62,36,20,30.38,30.22,13,4,16,0.00
2013-4-24,56.7,45.7,26.6,23.3,15.7,9.0,59,32,19,30.39,30.22,11,4,13,0.00
2013-4-25,65.5,41.7,27.3,26.4,18.9,14.6,66,44,16,30.22,30.09,19,4,19,0.00
2013-4-26,69.4,59.1,34.2,53.7,24.0,14.6,97,28,15,30.36,30.18,14,6,17,0.00
2013-4-27,75.0,58.5,37.0,36.3,28.2,17.8,72,36,13,30.37,30.17,23,8,29,0.00
2013-4-28,68.4,55.4,43.9,36.8,29.4,17.1,63,40,19,30.19,30.05,30,12,30,0.00
2013-4-29,62.4,53.0,43.0,35.5,30.7,25.5,65,44,27,30.09,29.88,40,16,45,0.20
2013-4-30,52.3,44.0,32.2,31.3,24.2,13.8,61,47,22,30.09,29.91,18,9,18,0.00
2013-5-1,53.6,46.3,31.3,26.2,17.0,12.0,66,34,19,30.50,30.45,13,5,13,0.01
2013-5-2,61.9,46.4,26.2,23.9,18.2,12.7,66,36,18,30.70,30.43,10,3,11,0.48
2013-5-3,67.8,54.0,38.3,29.1,22.1,17.2,61,33,15,30.44,30.15,13,3,13,0.00
2013-5-4,62.4,54.4,45.5,43.1,37.5,30.1,72,54,30,30.18,30.11,17,7,17,0.02
2013-5-5,72.7,57.1,42.1,39.6,36.1,29.6,76,48,21,30.15,30.03,17,6,17,0.00
2013-5-6,74.3,56.8,42.3,45.7,38.8,32.9,76,53,24,30.09,30.01,22,4,28,0.02
2013-5-7,64.0,55.9,50.0,47.9,44.1,40.6,79,65,46,30.14,30.07,17,4,17,0.00
2013-5-8,72.1,56.3,41.7,47.2,42.0,36.3,87,62,27,30.21,30.13,12,4,17,0.00
2013-5-9,77.5,59.0,39.7,46.1,40.5,34.5,91,54,21,30.30,30.20,13,2,13,0.00
2013-5-10,78.4,60.5,43.3,45.7,36.4,22.6,82,48,13,30.37,30.29,11,3,12,0.00
2013-5-11,81.3,63.7,43.7,45.2,38.0,32.7,71,42,18,30.42,30.29,20,3,21,0.00
2013-5-12,85.3,68.1,46.2,47.2,41.2,35.4,78,42,17,30.36,30.20,16,4,16,0.00
2013-5-13,87.4,71.1,51.3,48.1,42.3,34.9,73,40,16,30.26,30.08,21,6,21,0.00
2013-5-14,76.8,66.6,54.1,47.7,42.3,33.9,68,43,25,30.21,30.06,21,10,24,0.00
2013-5-15,79.0,66.3,52.3,45.6,41.8,33.1,65,44,23,30.14,29.98,19,7,19,0.00
2013-5-16,71.2,60.4,52.9,45.7,42.8,39.9,68,53,35,30.06,29.98,19,8,20,0.00
2013-5-17,62.6,54.2,48.7,49.1,45.8,42.3,91,74,53,30.08,30.02,13,5,14,0.00
2013-5-18,62.1,51.1,45.7,49.4,44.2,37.9,90,78,54,30.15,30.07,17,5,17,0.00
2013-5-19,57.9,49.1,43.2,47.3,43.3,37.5,90,81,62,30.25,30.13,18,5,18,0.01
2013-5-20,66.6,55.6,46.8,48.6,45.0,41.8,98,71,41,30.30,30.20,10,3,11,0.00
2013-5-21,73.2,60.6,43.5,48.9,42.0,35.3,88,54,25,30.21,29.86,14,4,19,0.00
2013-5-22,61.2,51.7,41.2,42.4,33.6,22.1,69,51,30,30.09,29.84,21,10,24,0.00
2013-5-23,65.5,50.2,36.7,37.1,32.2,26.1,81,53,29,30.10,29.94,15,5,21,0.00
2013-5-24,68.9,55.2,37.8,35.3,24.5,18.7,70,34,15,30.20,30.05,16,6,19,0.00
2013-5-25,61.5,49.0,38.8,41.2,33.0,18.8,76,56,25,30.09,30.02,16,5,17,0.00
2013-5-26,72.5,56.7,43.5,43.4,37.8,30.9,80,53,22,30.11,30.01,11,4,13,0.00
2013-5-27,66.7,56.0,43.5,43.6,37.1,24.0,81,52,22,30.16,30.00,21,8,21,0.00
2013-5-28,54.9,50.6,44.8,47.9,44.1,39.6,88,78,59,30.04,29.94,15,5,15,0.01
2013-5-29,63.5,53.5,45.1,46.6,41.7,36.4,97,67,38,29.99,29.91,21,10,27,0.01
2013-5-30,63.9,52.9,42.1,41.9,35.2,26.9,85,55,26,30.13,29.97,22,10,25,0.00
2013-5-31,66.7,53.7,41.7,40.7,34.7,27.1,77,51,25,30.33,30.13,19,8,19,0.00
2013-6-1,73.8,58.0,39.6,39.6,33.6,19.5,82,45,13,30.37,30.15,11,4,13,0.00
2013-6-2,84.4,73.1,43.7,42.2,35.8,25.2,82,28,17,30.15,29.86,22,11,26,0.00
2013-6-3,70.0,56.4,41.0,40.4,34.8,29.6,76,47,23,30.16,30.02,17,5,19,0.00
2013-6-4,72.9,59.3,43.3,42.9,35.7,29.1,74,45,21,30.25,30.11,11,4,15,0.00
2013-6-5,77.5,62.9,43.5,48.7,39.0,28.3,78,45,17,30.28,30.15,11,4,11,0.00
2013-6-6,82.8,67.4,48.9,51.6,43.8,34.3,74,45,21,30.23,30.14,16,3,17,0.00
2013-6-7,84.2,67.5,48.9,55.1,49.4,44.3,86,56,29,30.17,29.98,23,6,23,0.00
2013-6-8,79.3,68.8,53.8,52.7,43.3,29.4,68,43,22,30.18,30.02,15,6,15,0.00
2013-6-9,86.2,77.0,55.6,53.3,47.0,37.7,57,36,24,30.16,29.99,24,8,24,0.00
2013-6-10,92.7,77.0,61.0,56.6,43.8,22.0,64,35,11,30.02,29.86,13,5,16,0.00
2013-6-11,80.6,70.4,59.9,52.2,45.4,23.5,64,42,16,30.11,29.88,19,9,21,0.00
2013-6-12,77.4,63.4,59.2,55.4,49.6,43.6,81,61,37,30.19,30.08,12,3,12,0.00
2013-6-13,73.9,61.5,51.4,52.4,44.7,30.0,88,57,24,30.19,30.02,30,8,30,0.00
2013-6-14,63.9,53.9,43.5,40.3,35.7,25.6,73,52,24,30.33,30.18,25,8,25,0.00
2013-6-15,79.2,60.0,38.3,40.6,31.8,22.0,76,41,12,30.26,30.12,10,3,11,0.00
2013-6-16,89.4,68.6,46.8,47.1,40.3,28.3,75,42,14,30.19,30.10,13,4,16,0.00
2013-6-17,88.0,69.6,51.4,50.7,41.5,29.5,70,41,13,30.22,30.08,13,4,13,0.00
2013-6-18,87.3,70.8,49.8,51.1,40.4,20.8,72,38,13,30.09,29.79,13,3,13,0.00
2013-6-19,75.2,59.6,44.6,45.5,39.1,19.2,76,48,13,30.18,29.77,25,10,27,0.00
2013-6-20,66.7,53.5,39.0,40.4,32.8,17.7,85,52,16,30.21,30.12,14,6,16,0.00
2013-6-21,68.0,56.5,44.4,44.4,38.7,30.4,82,54,26,30.20,30.10,19,5,19,0.00
2013-6-22,67.3,56.8,45.3,44.6,38.8,33.9,76,52,35,30.22,30.14,21,7,22,0.00
2013-6-23,81.0,64.2,41.5,44.2,36.5,27.3,78,42,14,30.16,29.88,14,2,14,0.00
2013-6-24,77.9,65.8,55.4,52.7,46.6,34.5,88,52,33,30.08,29.86,24,7,24,0.00
2013-6-25,76.1,62.7,50.9,58.1,52.2,47.4,92,71,40,30.16,30.07,12,4,16,0.00
2013-6-26,81.9,68.6,54.7,56.9,53.4,49.3,89,62,33,30.27,30.16,16,4,17,0.00
2013-6-27,91.6,73.5,54.3,60.0,52.5,45.3,87,53,21,30.38,30.26,9,2,9,0.00
2013-6-28,91.4,71.0,57.9,56.2,52.1,44.7,81,54,21,30.40,30.32,8,2,9,0.00
2013-6-29,98.1,78.7,62.1,59.1,50.7,36.0,64,41,12,30.28,30.14,15,4,15,0.00
2013-6-30,73.6,73.3,73.0,53.5,52.6,52.0,50,48,47,30.26,30.25,19,10,19,0.00
2013-7-1,96.6,78.6,63.1,59.8,54.0,43.8,75,46,18,30.30,30.23,9,3,9,0.00
2013-7-2,94.5,76.4,61.5,63.4,57.6,53.3,92,56,28,30.31,30.19,6,2,6,0.00
2013-7-3,94.5,79.9,63.1,61.8,56.6,50.6,73,46,26,30.25,30.11,10,3,11,0.00
2013-7-4,85.6,76.6,66.0,61.6,58.0,54.9,74,53,40,30.17,30.12,10,4,11,0.00
2013-7-5,87.8,73.3,63.3,58.1,54.5,49.3,72,53,32,30.09,29.97,23,8,31,0.00
2013-7-6,88.0,72.2,55.6,59.9,52.1,48.3,85,51,37,30.11,30.00,11,4,15,0.00
2013-7-7,90.5,73.0,55.6,61.0,50.3,42.6,82,47,27,30.13,30.03,18,5,18,0.00
2013-7-8,88.9,75.9,61.5,58.9,50.1,41.1,68,42,20,30.21,30.12,14,5,16,0.00
2013-7-9,91.4,73.2,55.6,53.7,48.9,41.3,77,47,18,30.33,30.21,9,2,10,0.00
2013-7-10,96.6,86.8,73.9,55.4,41.8,27.6,42,22,13,30.24,30.06,8,2,10,0.00
2013-7-11,75.9,72.4,69.6,42.2,38.9,36.1,37,30,24,30.09,30.08,6,1,6,0.00
2013-7-12,82.9,72.6,59.7,55.5,50.4,45.9,86,53,28,30.16,30.09,6,3,6,0.00
2013-7-13,85.8,76.6,68.2,53.7,48.1,40.1,53,39,21,30.23,30.18,11,6,14,0.00
2013-7-14,89.6,71.9,59.2,57.6,50.3,46.1,74,51,25,30.29,30.17,10,3,10,0.00
2013-7-15,94.5,78.8,56.3,54.6,50.9,44.0,76,41,18,30.21,30.11,19,6,22,0.00
2013-7-17,94.6,78.2,61.3,62.7,55.4,49.4,92,49,24,30.28,30.19,11,3,11,0.00
2013-7-18,80.2,64.6,57.9,58.3,54.1,51.9,84,70,44,30.32,30.24,4,1,4,0.00
2013-7-19,95.2,79.4,54.7,51.3,41.8,30.1,67,31,13,30.27,30.12,7,2,8,0.00
2013-7-20,91.8,91.4,91.0,43.0,41.1,39.2,19,18,16,30.04,30.03,8,7,8,0.00
2013-7-21,90.3,87.2,82.2,41.2,33.5,29.7,22,15,12,30.07,30.03,14,9,14,0.00
2013-7-22,92.5,83.6,73.8,45.1,38.6,31.2,28,21,12,30.13,30.07,14,8,14,0.00
2013-7-23,87.3,72.6,64.2,48.4,42.9,30.4,56,38,13,30.21,30.17,5,1,5,0.00
2013-7-24,64.4,59.0,54.1,48.5,43.4,39.9,66,57,44,30.22,30.20,2,0,3,0.00
2013-7-25,91.6,73.4,58.6,53.0,47.7,40.7,67,45,21,30.27,30.17,5,2,5,0.00
2013-7-26,96.6,83.9,71.8,53.0,46.1,37.5,45,30,13,30.24,30.19,7,2,7,0.00
2013-7-27,70.9,68.2,63.9,49.7,48.3,46.9,58,49,43,30.23,30.19,5,2,5,0.00
2013-7-28,82.0,75.0,57.9,59.9,55.3,47.6,94,54,31,30.15,30.07,12,5,12,0.00
2013-7-29,64.4,64.4,64.4,49.8,49.8,49.8,59,59,59,30.07,30.07,2,2,2,0.00
2013-7-30,84.2,66.1,57.7,55.5,51.6,48.3,79,62,32,30.30,30.20,8,2,8,0.00
2013-7-31,68.9,61.6,54.7,48.5,46.7,45.6,73,59,44,30.31,30.27,5,2,5,0.00
2013-8-1,94.1,91.0,84.9,45.3,40.6,36.2,24,18,14,30.06,29.99,11,8,11,0.00
2013-8-2,81.5,65.5,53.2,47.6,42.8,33.9,65,46,18,30.24,30.07,17,8,17,0.00
2013-8-3,88.3,67.6,50.2,45.9,40.1,31.2,73,42,14,30.26,30.17,8,4,8,0.00
2013-8-4,87.1,64.3,55.4,48.5,43.8,34.6,72,52,19,30.19,30.14,4,1,4,0.00
2013-8-5,95.7,78.7,51.6,48.3,41.3,29.0,72,31,11,30.21,30.08,13,5,15,0.00
2013-8-6,90.5,72.7,52.9,48.3,42.7,31.9,75,38,14,30.21,30.09,11,4,11,0.00
2013-8-7,91.6,71.0,52.2,47.8,40.6,30.9,70,38,12,30.20,30.10,6,2,6,0.00
2013-8-10,90.1,80.2,72.7,44.2,35.0,28.0,32,20,12,30.16,30.14,11,4,11,0.00
2013-8-11,85.1,70.0,61.2,53.0,40.0,29.6,61,36,19,30.24,30.16,6,3,6,0.00
2013-8-12,82.2,78.8,76.1,38.2,35.2,24.8,25,21,13,30.20,30.15,14,7,14,0.11
2013-8-13,90.3,75.6,60.8,49.0,42.4,34.8,49,32,15,30.29,30.20,11,4,11,0.00
2013-8-14,93.2,75.1,55.9,48.4,41.8,30.1,65,35,12,30.27,30.14,8,2,8,0.00
2013-8-15,96.1,74.5,54.0,45.1,33.9,22.4,72,27,12,30.23,30.14,8,2,8,0.00
2013-8-16,96.1,76.3,55.2,48.8,39.5,22.6,56,31,11,30.24,30.17,13,4,14,0.00
2013-8-17,95.7,94.3,92.7,39.9,37.7,36.6,16,14,13,30.19,30.16,10,8,10,0.00
2013-8-18,79.7,65.9,57.2,54.6,47.1,38.6,66,52,32,30.27,30.18,8,1,8,0.00
2013-8-20,91.0,75.4,68.7,53.7,52.0,45.5,56,45,22,30.19,30.13,16,6,16,0.00
2013-8-21,82.2,67.6,63.5,58.6,53.0,51.0,68,60,40,30.27,30.19,7,1,7,0.00
2013-8-22,92.1,72.1,57.6,56.9,54.2,51.5,85,59,26,30.29,30.13,11,3,11,0.00
2013-8-23,86.9,72.6,63.0,57.1,52.5,49.5,66,51,34,30.17,30.08,8,4,8,0.00
2013-8-24,71.4,66.2,59.2,57.4,55.3,51.3,75,68,61,30.11,30.09,3,1,3,0.09
2013-8-25,88.3,71.8,54.1,56.6,51.9,46.6,91,54,25,30.25,30.11,14,4,14,0.00
2013-8-26,83.7,73.8,63.0,58.9,54.3,47.9,68,52,34,30.26,30.17,14,6,14,0.00
2013-8-27,86.5,73.3,64.6,57.4,53.9,51.4,66,52,34,30.25,30.15,8,3,8,0.00
2013-8-28,86.0,73.5,64.2,61.7,55.8,51.7,86,55,38,30.27,30.17,17,3,17,0.07
2013-8-29,90.0,69.2,57.7,62.4,56.2,50.9,86,67,33,30.30,30.22,9,3,9,0.00
2013-8-30,75.0,72.6,68.2,45.5,43.4,42.1,41,35,33,30.22,30.20,4,3,4,0.00
2013-8-31,59.7,56.0,53.6,46.0,45.5,44.8,73,68,60,30.28,30.27,2,2,2,0.00
2013-9-1,89.8,76.4,53.2,47.9,43.2,37.6,62,34,17,30.23,30.11,6,3,6,0.00
2013-9-2,71.6,67.8,64.9,65.0,56.5,46.7,93,69,43,30.22,30.12,7,2,7,0.27
2013-9-3,86.5,71.7,59.4,63.7,60.5,57.3,95,71,43,30.29,30.21,8,3,8,0.00
2013-9-4,86.2,69.6,59.2,64.8,61.1,58.0,97,78,43,30.35,30.28,5,2,5,0.00
2013-9-5,79.7,67.0,62.1,64.6,58.2,52.0,94,76,39,30.30,30.17,4,1,4,0.12
2013-9-6,76.1,66.8,62.4,58.4,55.0,51.9,77,67,48,30.26,30.19,17,4,17,0.00
2013-9-7,77.5,67.7,58.1,59.3,53.1,49.0,85,61,45,30.30,30.20,8,3,8,0.01
2013-9-8,81.7,70.1,57.2,58.5,53.2,50.5,85,56,44,30.23,30.08,11,3,17,0.00
2013-9-9,66.0,58.3,53.4,51.3,47.5,45.1,75,67,53,30.20,30.11,12,6,14,0.00
2013-9-10,80.8,61.0,50.2,48.5,45.4,42.2,74,59,32,30.24,30.18,8,4,8,0.00
2013-9-11,75.7,71.3,69.6,55.6,53.4,51.1,59,53,46,30.27,30.25,10,3,10,0.00
2013-9-12,79.5,70.7,65.7,54.7,51.2,49.5,56,50,38,30.19,30.17,15,6,15,0.02
2013-9-13,79.2,77.2,75.6,56.0,54.9,53.9,49,46,43,30.12,30.05,10,7,10,0.00
2013-9-14,77.7,63.7,57.7,59.5,56.4,51.5,96,80,40,30.14,30.08,8,2,8,0.00
2013-9-15,78.3,72.0,69.3,57.7,55.4,54.1,61,56,45,30.16,30.13,7,4,8,0.00
2013-9-16,86.7,82.2,72.7,58.8,55.9,52.1,56,41,34,30.17,30.07,10,6,10,0.00
2013-9-17,70.3,65.6,62.2,52.0,49.1,46.6,63,56,44,30.08,29.86,13,4,13,0.08
2013-9-18,61.5,55.9,48.4,44.2,39.7,35.5,79,56,42,30.21,30.10,29,14,29,0.00
2013-9-19,46.2,42.7,39.9,35.1,34.3,33.5,79,72,64,30.27,30.25,4,1,4,0.00
2013-9-20,74.8,64.3,54.0,36.7,30.0,22.8,52,30,16,30.03,30.02,4,2,4,0.00
2013-9-21,82.6,68.7,43.7,43.0,32.1,23.7,79,33,12,30.01,29.77,19,6,19,0.00
2013-9-22,67.1,61.7,55.0,41.3,39.5,38.2,54,44,39,29.94,29.89,20,16,20,0.00
2013-9-23,65.7,60.1,46.0,42.2,38.8,33.5,74,47,33,30.18,30.13,25,15,25,0.00
2013-9-24,66.0,59.1,53.1,42.9,39.4,36.9,58,49,35,29.98,29.93,10,4,10,0.00
2013-9-25,52.5,46.7,41.9,42.6,38.8,34.6,86,74,62,29.97,29.82,12,6,12,0.00
2013-9-26,46.4,38.7,34.7,38.2,34.5,31.1,93,85,70,30.00,29.93,11,3,11,0.00
2013-9-27,54.1,43.8,37.4,38.1,35.5,33.1,93,75,46,30.17,30.06,17,5,17,0.00
2013-9-29,62.1,60.1,56.8,42.1,38.4,33.5,51,45,36,30.09,30.00,15,9,15,0.00
2013-9-30,70.5,57.8,51.8,43.5,41.1,39.3,64,55,35,30.14,30.00,23,14,23,0.00
2013-10-1,45.1,41.9,37.0,39.0,36.2,32.7,87,80,75,30.17,30.15,4,2,4,0.00
2013-10-2,55.0,46.6,41.9,38.0,35.5,33.6,86,66,49,30.02,29.98,6,1,6,0.00
2013-10-3,42.1,38.5,34.5,37.7,34.3,28.5,97,85,71,30.24,30.00,22,8,22,0.00
2013-10-4,53.8,42.4,35.8,29.8,27.6,24.6,71,57,32,30.46,30.25,10,5,10,0.00
2013-10-5,52.5,42.8,29.8,33.4,30.6,26.7,88,63,46,30.57,30.53,7,4,7,0.00
2013-10-6,68.0,49.5,31.3,35.9,30.4,25.5,81,53,23,30.51,30.35,5,2,5,0.00
2013-10-7,72.5,58.6,38.1,32.8,29.4,22.0,77,41,18,30.30,30.05,8,5,8,0.00
2013-10-8,55.8,49.3,43.5,34.3,31.1,24.7,69,51,33,30.08,30.02,17,14,17,0.00
2013-10-9,65.3,54.1,33.6,44.0,37.2,25.9,84,55,30,30.04,29.92,16,6,24,0.00
2013-10-10,55.4,45.4,38.8,44.1,39.1,35.7,98,80,53,29.99,29.89,19,6,21,0.00
2013-10-11,51.8,42.2,34.5,30.5,28.5,25.4,69,59,39,30.18,30.01,13,3,13,0.00
2013-10-12,61.2,46.7,32.9,35.7,31.2,25.7,76,57,30,30.19,30.07,4,2,4,0.00
2013-10-13,49.5,44.6,41.7,42.5,40.3,35.7,96,85,67,30.21,30.08,5,2,5,0.00
2013-10-14,44.1,39.8,37.4,41.1,38.5,37.0,99,95,81,30.33,30.21,11,5,11,0.00
2013-10-15,52.7,37.8,28.9,31.8,26.0,20.5,90,64,29,30.42,30.32,10,1,10,0.00
2013-10-16,53.6,39.4,26.1,33.4,26.2,21.3,87,62,32,30.33,30.23,17,4,17,0.00
2013-10-17,54.1,41.8,35.2,28.1,27.5,26.4,75,60,34,30.24,30.23,2,1,2,0.00
2013-10-18,54.7,45.8,37.4,29.2,24.9,21.2,60,46,27,30.34,30.31,8,2,8,0.00
2013-10-19,60.4,48.8,27.1,33.2,29.3,21.8,85,50,29,30.33,30.23,13,7,13,0.00
2013-10-20,61.0,49.4,37.4,32.9,30.7,26.7,77,51,27,30.25,30.17,6,2,6,0.00
2013-10-21,61.9,38.1,28.2,34.7,28.8,22.8,86,71,34,30.35,30.26,4,0,4,0.00
2013-10-22,68.4,45.1,29.5,37.1,31.0,26.3,88,64,25,30.39,30.28,8,2,8,0.00
2013-10-23,37.8,34.8,32.0,31.8,28.5,26.5,81,77,74,30.31,30.29,3,1,3,0.00
2013-10-24,71.8,64.8,50.7,36.5,32.6,29.7,55,32,21,30.30,30.22,5,2,5,0.00
2013-10-25,37.8,36.4,35.2,30.9,29.2,28.1,77,75,73,30.29,30.28,0,0,0,0.00
2013-10-27,68.4,58.7,53.2,27.9,25.3,22.6,36,28,19,29.91,29.83,5,2,5,0.00
2013-10-28,37.9,36.8,35.8,37.0,34.3,32.4,97,91,86,29.93,29.86,11,7,11,0.00
2013-10-29,37.2,37.2,37.2,34.3,34.3,34.3,89,89,89,29.93,29.93,6,6,6,0.00
2013-10-30,41.2,39.0,37.6,32.5,32.1,31.5,81,76,71,30.18,30.13,14,9,14,0.00
2013-10-31,49.1,43.3,37.9,36.5,35.6,34.5,88,75,57,30.24,30.16,13,8,13,0.00
2013-11-1,45.7,39.7,36.7,35.3,33.4,30.2,89,79,67,30.33,30.25,6,2,6,0.00
2013-11-2,63.0,44.9,32.5,36.1,31.0,24.5,83,63,23,30.31,29.94,14,3,14,0.00
2013-11-3,43.0,37.0,29.8,34.0,23.1,13.6,85,60,30,30.08,29.95,17,10,17,0.00
2013-11-4,39.2,33.8,28.0,23.3,19.4,11.6,81,57,35,30.16,30.10,24,8,24,0.00
2013-11-5,36.1,25.9,15.6,24.2,16.5,9.6,87,70,41,30.37,30.22,17,6,17,0.00
2013-11-6,43.3,36.4,31.6,35.3,28.8,24.5,78,74,68,30.45,30.35,12,4,12,0.00
2013-11-7,54.5,51.2,47.5,36.4,32.2,29.1,63,49,41,30.35,30.11,11,5,11,0.00
2013-11-8,47.7,43.7,39.7,31.7,26.7,16.6,66,52,29,30.23,30.16,23,12,23,0.00
2013-11-9,55.8,45.2,34.7,29.2,25.8,22.6,62,48,28,30.32,30.24,7,4,7,0.00
2013-11-10,63.3,55.5,37.0,37.1,32.1,27.2,71,43,26,30.38,30.30,6,3,6,0.00
2013-11-12,49.5,33.8,27.1,34.0,26.0,20.8,82,73,55,30.55,30.53,7,3,7,0.00
2013-11-13,53.1,45.0,35.1,37.1,33.0,29.5,80,65,42,30.38,30.33,14,7,14,0.00
2013-11-14,43.9,34.6,28.9,33.5,28.6,24.8,86,79,58,30.36,29.95,7,2,7,0.00
2013-11-15,38.5,35.2,33.3,26.4,23.5,20.6,74,62,56,29.93,29.77,18,11,18,0.00
2013-11-16,40.5,34.2,30.0,31.6,28.1,21.2,94,79,55,29.76,29.63,26,13,26,0.00
2013-11-17,43.9,40.4,35.1,28.8,26.6,25.2,68,58,50,30.16,30.11,20,14,20,0.00
2013-11-18,54.5,51.1,46.6,32.5,31.9,31.2,55,48,42,30.23,30.12,5,3,5,0.00
2013-11-19,44.1,41.9,34.3,38.7,35.2,26.6,85,77,67,30.05,30.01,17,8,17,0.00
2013-11-20,44.2,41.9,35.2,40.0,37.1,31.8,88,83,76,30.05,29.95,13,6,13,0.00
2013-11-21,35.4,31.9,28.0,19.2,5.1,-1.0,62,34,22,30.48,30.15,14,9,14,0.00
2013-11-22,41.0,27.5,13.8,13.3,9.3,1.0,67,48,22,30.60,30.50,9,4,9,0.00
2013-11-23,45.7,29.0,15.6,19.1,13.0,6.9,71,54,24,30.50,30.38,9,4,9,0.00
2013-11-24,37.2,27.9,19.4,20.7,17.1,11.1,77,64,51,30.34,30.29,9,5,9,0.00
2013-11-26,40.1,29.3,19.6,23.9,19.0,13.2,77,66,52,30.51,30.37,5,2,5,0.00
2013-11-27,50.7,39.1,30.2,28.3,24.0,20.6,68,56,37,30.28,30.21,4,2,4,0.00
2013-11-28,47.3,32.4,22.3,28.6,21.5,16.2,77,65,46,30.26,30.21,6,2,6,0.00
2013-11-29,33.6,25.9,23.0,22.7,18.4,16.3,76,73,64,30.33,30.28,1,0,1,0.00
2013-11-30,43.9,31.2,23.5,31.2,23.5,17.7,85,73,56,30.41,30.33,11,2,11,0.00
2013-12-1,44.2,40.4,37.9,35.4,33.6,32.3,83,77,67,30.36,30.16,23,12,23,0.00
2013-12-2,48.7,44.4,37.2,34.0,31.1,29.2,79,60,48,30.06,29.76,28,16,31,0.00
2013-12-3,28.8,18.5,8.1,20.2,3.7,-15.0,71,54,29,30.01,29.83,27,10,27,0.00
2013-12-4,15.1,6.8,-0.2,-12.6,-16.5,-20.6,45,34,23,30.13,30.02,9,5,9,0.00
2013-12-5,16.0,4.5,-0.6,-1.9,-10.0,-15.8,57,50,43,30.19,30.14,9,3,9,0.00
2013-12-6,13.1,10.1,2.1,3.2,0.1,-7.9,68,63,57,30.20,30.13,6,5,6,0.00
2013-12-7,15.1,10.8,5.9,6.1,0.4,-4.0,68,62,58,30.07,29.89,8,4,8,0.00
2013-12-8,4.5,-1.1,-8.1,-9.5,-14.1,-21.1,56,53,50,30.34,30.22,7,2,7,0.00
2013-12-9,8.1,-2.4,-16.4,-6.4,-15.7,-29.6,58,52,44,30.53,30.35,6,2,6,0.00
2013-12-10,16.9,7.7,0.5,-0.6,-5.1,-12.3,60,55,44,30.48,30.37,5,3,5,0.00
2013-12-11,3.7,1.0,-0.9,-7.4,-10.0,-12.2,61,59,57,30.51,30.48,4,2,4,0.00
2013-12-12,24.6,19.2,7.7,10.2,6.4,-1.9,65,57,53,30.48,30.30,8,5,8,0.00
2013-12-13,25.2,15.0,4.3,17.0,6.3,-4.6,81,68,58,30.45,30.25,11,4,11,0.00
2013-12-14,23.9,21.7,17.4,18.9,16.2,11.1,81,79,75,30.60,30.50,4,1,4,0.00
2013-12-15,31.6,22.9,14.9,21.9,15.3,8.4,79,73,66,30.56,30.49,6,2,6,0.00
2013-12-16,26.2,17.1,7.9,15.0,8.5,-0.5,74,69,60,30.56,30.51,8,4,8,0.00
2013-12-17,30.2,19.2,8.2,17.2,9.4,-0.2,74,65,56,30.57,30.27,9,4,9,0.00
2013-12-18,32.9,23.0,12.9,17.9,11.7,5.3,71,62,53,30.18,29.96,6,3,6,0.00
2013-12-19,28.8,24.3,18.9,19.2,15.8,11.0,75,70,63,30.04,29.98,11,6,11,0.00
2013-12-20,26.2,23.4,18.0,10.2,8.3,6.9,65,52,45,30.11,29.97,14,9,14,0.00
2013-12-21,25.9,23.9,21.2,20.3,17.7,14.5,79,77,71,30.09,29.85,9,4,11,0.00
2013-12-22,25.7,23.1,21.2,20.7,18.0,16.0,81,81,80,30.28,30.18,7,4,7,0.00
2013-12-23,37.2,37.2,37.2,30.3,30.3,30.3,76,76,76,30.36,30.36,5,5,5,0.00
2013-12-24,39.6,29.7,25.2,31.3,19.2,12.8,73,65,58,30.56,30.24,21,7,21,0.00
2013-12-25,24.8,18.2,14.0,13.8,8.8,6.0,70,66,60,30.61,30.56,7,1,7,0.00
2013-12-26,25.2,17.7,12.7,12.2,7.6,4.2,69,64,57,30.57,30.50,5,3,5,0.00
2013-12-27,32.0,20.4,10.8,16.8,8.4,1.3,66,59,48,30.53,30.26,8,4,8,0.00
2013-12-28,32.7,22.3,14.9,20.4,12.2,5.6,73,65,60,30.38,30.21,9,3,9,0.00
2013-12-29,26.2,21.5,14.7,18.4,14.3,6.7,78,74,69,30.45,30.39,12,3,12,0.00
2014-1-1,24.1,23.4,22.6,17.6,16.9,16.2,76,76,75,30.48,30.47,8,4,8,0.00
2014-1-2,38.1,33.2,27.9,25.4,22.0,18.3,75,63,57,30.44,30.33,7,3,7,0.00